Time;durP1;ratioP1;P1;durP2;ratioP2;P2;SDS_P1;SDS_P2;PMS_P1;PMS_P2;Temp;Humidity;BMP_temperature;BMP_pressure;BME280_temperature;BME280_humidity;BME280_pressure;Samples;Min_cycle;Max_cycle;Signal;HPM_P1;HPM_P2
2021/08/24 00:00:03;;;;;;;;;;;18.80;93.20;;;;;;4344848;33;43795;-76
2021/08/24 00:02:36;;;;;;;;;;;18.80;93.20;;;;;;4344478;33;42974;-76
2021/08/24 00:05:04;;;;;;;;;;;18.80;93.20;;;;;;4344990;33;44225;-76
2021/08/24 00:07:32;;;;;;;;;;;18.80;93.10;;;;;;4345557;33;20005;-76
2021/08/24 00:09:59;;;;;;;;;;;18.80;93.10;;;;;;4344767;33;44215;-76
2021/08/24 00:12:26;;;;;;;;;;;18.80;93.40;;;;;;4331351;33;44908;-76
2021/08/24 00:14:56;;;;;;;;;;;18.80;93.10;;;;;;4331139;33;42658;-76
2021/08/24 00:17:23;;;;;;;;;;;18.80;93.10;;;;;;4331044;33;43764;-76
2021/08/24 00:19:52;;;;;;;;;;;18.80;93.00;;;;;;4344644;33;43757;-76
2021/08/24 00:22:19;;;;;;;;;;;18.70;93.00;;;;;;4344945;33;43224;-76
2021/08/24 00:24:49;;;;;;;;;;;18.70;93.00;;;;;;4347016;33;43219;-76
2021/08/24 00:27:16;;;;;;;;;;;18.70;92.90;;;;;;4334028;33;42771;-75
2021/08/24 00:29:44;;;;;;;;;;;18.80;92.90;;;;;;4347356;33;42953;-76
2021/08/24 00:32:11;;;;;;;;;;;18.70;92.90;;;;;;4347332;33;43239;-76
2021/08/24 00:34:38;;;;;;;;;;;18.70;92.90;;;;;;4333805;33;42490;-76
2021/08/24 00:37:08;;;;;;;;;;;18.60;92.90;;;;;;4333784;33;43470;-76
2021/08/24 00:39:38;;;;;;;;;;;18.70;92.90;;;;;;4333577;33;42951;-76
2021/08/24 00:42:12;;;;;;;;;;;18.70;92.80;;;;;;4346907;33;43470;-76
2021/08/24 00:44:40;;;;;;;;;;;18.60;92.80;;;;;;4334060;33;44806;-76
2021/08/24 00:47:11;;;;;;;;;;;18.60;92.80;;;;;;4334143;33;43889;-76
2021/08/24 00:49:48;;;;;;;;;;;18.60;92.80;;;;;;4334296;33;43292;-76
2021/08/24 00:52:18;;;;;;;;;;;18.60;92.80;;;;;;4347112;33;44508;-76
2021/08/24 00:54:45;;;;;;;;;;;18.60;92.80;;;;;;4346641;33;42782;-76
2021/08/24 00:57:18;;;;;;;;;;;18.50;92.80;;;;;;4347000;33;44192;-76
2021/08/24 00:59:45;;;;;;;;;;;18.60;92.80;;;;;;4347232;33;43939;-76
2021/08/24 01:02:14;;;;;;;;;;;18.50;92.80;;;;;;4346487;33;44005;-76
2021/08/24 01:04:42;;;;;;;;;;;18.50;92.80;;;;;;4333249;33;43214;-76
2021/08/24 01:07:28;;;;;;;;;;;18.50;92.80;;;;;;4347006;33;43901;-76
2021/08/24 01:10:04;;;;;;;;;;;18.50;92.80;;;;;;4333279;33;42857;-76
2021/08/24 01:12:34;;;;;;;;;;;18.50;92.80;;;;;;4333623;33;43476;-76
2021/08/24 01:15:13;;;;;;;;;;;18.50;92.80;;;;;;4346400;33;44166;-76
2021/08/24 01:17:47;;;;;;;;;;;18.50;92.70;;;;;;4346568;33;44047;-76
2021/08/24 01:20:24;;;;;;;;;;;18.50;92.70;;;;;;4333606;33;42608;-76
2021/08/24 01:22:51;;;;;;;;;;;18.50;92.70;;;;;;4346650;33;43433;-76
2021/08/24 01:25:34;;;;;;;;;;;18.50;92.70;;;;;;4333036;33;44021;-76
2021/08/24 01:28:10;;;;;;;;;;;18.50;92.70;;;;;;4346885;33;43243;-76
2021/08/24 01:30:56;;;;;;;;;;;18.50;92.70;;;;;;4346685;33;42287;-76
2021/08/24 01:33:38;;;;;;;;;;;18.40;92.70;;;;;;4346605;33;43848;-75
2021/08/24 01:36:11;;;;;;;;;;;18.40;92.70;;;;;;4345543;33;43814;-76
2021/08/24 01:38:45;;;;;;;;;;;18.40;92.60;;;;;;4333277;33;43861;-76
2021/08/24 01:41:12;;;;;;;;;;;18.40;92.50;;;;;;4334156;33;20001;-76
2021/08/24 01:43:48;;;;;;;;;;;18.40;92.60;;;;;;4345910;33;44280;-76
2021/08/24 01:46:23;;;;;;;;;;;18.40;92.60;;;;;;4346188;33;42537;-76
2021/08/24 01:48:53;;;;;;;;;;;18.30;92.60;;;;;;4346418;33;43962;-75
2021/08/24 01:51:22;;;;;;;;;;;18.30;92.50;;;;;;4345808;33;43271;-76
2021/08/24 01:53:54;;;;;;;;;;;18.30;92.40;;;;;;4332953;33;42761;-75
2021/08/24 01:56:23;;;;;;;;;;;18.30;92.50;;;;;;4332394;33;44614;-76
2021/08/24 01:58:53;;;;;;;;;;;18.30;92.50;;;;;;4332658;33;43949;-76
2021/08/24 02:01:29;;;;;;;;;;;18.30;92.40;;;;;;4346191;33;43904;-76
2021/08/24 02:03:59;;;;;;;;;;;18.30;92.40;;;;;;4346050;33;43910;-76
2021/08/24 02:06:36;;;;;;;;;;;18.20;92.50;;;;;;4345597;33;44528;-75
2021/08/24 02:09:06;;;;;;;;;;;18.20;92.50;;;;;;4332767;33;44665;-76
2021/08/24 02:11:35;;;;;;;;;;;18.20;92.50;;;;;;4333916;33;20005;-75
2021/08/24 02:14:07;;;;;;;;;;;18.20;92.50;;;;;;4345603;33;43033;-76
2021/08/24 02:16:35;;;;;;;;;;;18.20;92.50;;;;;;4345979;33;44608;-76
2021/08/24 02:19:05;;;;;;;;;;;18.20;92.50;;;;;;4332196;33;42072;-76
2021/08/24 02:21:44;;;;;;;;;;;18.20;92.50;;;;;;4345371;33;43462;-75
2021/08/24 02:24:16;;;;;;;;;;;18.20;92.40;;;;;;4332680;33;44199;-76
2021/08/24 02:26:45;;;;;;;;;;;18.20;92.50;;;;;;4345877;33;43261;-76
2021/08/24 02:29:12;;;;;;;;;;;18.20;92.50;;;;;;4345147;33;44447;-75
2021/08/24 02:31:50;;;;;;;;;;;18.20;92.40;;;;;;4345396;33;44616;-75
2021/08/24 02:34:17;;;;;;;;;;;18.20;92.50;;;;;;4345770;33;44614;-75
2021/08/24 02:36:49;;;;;;;;;;;18.20;92.40;;;;;;4345705;33;43274;-76
2021/08/24 02:39:21;;;;;;;;;;;18.20;92.40;;;;;;4345730;33;43903;-76
2021/08/24 02:42:07;;;;;;;;;;;18.10;92.40;;;;;;4346758;33;20056;-76
2021/08/24 02:44:38;;;;;;;;;;;18.20;92.40;;;;;;4345448;33;42830;-76
2021/08/24 02:47:06;;;;;;;;;;;18.10;92.40;;;;;;4332289;33;43835;-75
2021/08/24 02:49:33;;;;;;;;;;;18.10;92.40;;;;;;4344942;33;43902;-76
2021/08/24 02:52:03;;;;;;;;;;;18.10;92.40;;;;;;4332186;33;43537;-76
2021/08/24 02:54:56;;;;;;;;;;;18.10;92.30;;;;;;4344982;33;43062;-75
2021/08/24 02:57:23;;;;;;;;;;;18.10;92.30;;;;;;4330087;33;43584;-75
2021/08/24 02:59:50;;;;;;;;;;;18.10;92.30;;;;;;4344948;33;42499;-75
2021/08/24 03:02:17;;;;;;;;;;;18.00;92.20;;;;;;4344710;33;42670;-75
2021/08/24 03:04:45;;;;;;;;;;;18.00;92.20;;;;;;4344890;33;44229;-76
2021/08/24 03:07:18;;;;;;;;;;;18.00;92.20;;;;;;4331773;33;43986;-75
2021/08/24 03:09:45;;;;;;;;;;;18.00;92.10;;;;;;4345005;33;44116;-75
2021/08/24 03:12:24;;;;;;;;;;;18.00;92.20;;;;;;4345673;33;20020;-76
2021/08/24 03:14:59;;;;;;;;;;;18.00;92.20;;;;;;4345495;33;43177;-76
2021/08/24 03:17:29;;;;;;;;;;;18.00;92.30;;;;;;4345424;33;43203;-75
2021/08/24 03:19:59;;;;;;;;;;;17.90;92.20;;;;;;4344775;33;43900;-75
2021/08/24 03:22:27;;;;;;;;;;;17.90;92.20;;;;;;4331728;33;42964;-75
2021/08/24 03:24:55;;;;;;;;;;;17.90;92.20;;;;;;4344738;33;44035;-76
2021/08/24 03:27:22;;;;;;;;;;;17.90;92.20;;;;;;4344692;33;45067;-75
2021/08/24 03:29:57;;;;;;;;;;;17.90;92.20;;;;;;4331467;33;44083;-75
2021/08/24 03:32:25;;;;;;;;;;;17.90;92.10;;;;;;4331592;33;43398;-75
2021/08/24 03:34:57;;;;;;;;;;;17.90;92.10;;;;;;4332198;33;45781;-75
2021/08/24 03:37:24;;;;;;;;;;;17.90;92.10;;;;;;4331704;33;42948;-75
2021/08/24 03:39:51;;;;;;;;;;;17.90;92.20;;;;;;4344918;33;43470;-76
2021/08/24 03:42:19;;;;;;;;;;;17.90;92.20;;;;;;4345636;33;20008;-75
2021/08/24 03:44:46;;;;;;;;;;;17.80;92.10;;;;;;4344739;33;44207;-76
2021/08/24 03:47:14;;;;;;;;;;;17.80;92.10;;;;;;4331406;33;43170;-75
2021/08/24 03:49:42;;;;;;;;;;;17.80;92.10;;;;;;4345119;33;44008;-75
2021/08/24 03:52:09;;;;;;;;;;;17.80;92.10;;;;;;4331286;33;43455;-75
2021/08/24 03:54:36;;;;;;;;;;;17.80;92.10;;;;;;4344513;33;42816;-75
2021/08/24 03:57:03;;;;;;;;;;;17.80;92.10;;;;;;4331231;33;44303;-75
2021/08/24 03:59:30;;;;;;;;;;;17.80;92.10;;;;;;4346677;33;42570;-75
2021/08/24 04:01:58;;;;;;;;;;;17.80;92.10;;;;;;4333903;33;43172;-76
2021/08/24 04:04:25;;;;;;;;;;;17.80;92.10;;;;;;4334193;33;44679;-76
2021/08/24 04:06:55;;;;;;;;;;;17.80;92.10;;;;;;4347492;33;44251;-76
2021/08/24 04:09:22;;;;;;;;;;;17.80;92.10;;;;;;4347166;33;44151;-76
2021/08/24 04:11:52;;;;;;;;;;;17.80;92.00;;;;;;4333966;33;43161;-76
2021/08/24 04:14:19;;;;;;;;;;;17.70;92.00;;;;;;4334983;33;19998;-76
2021/08/24 04:16:48;;;;;;;;;;;17.70;92.00;;;;;;4347262;33;44175;-76
2021/08/24 04:19:15;;;;;;;;;;;17.70;92.30;;;;;;4347123;33;43918;-75
2021/08/24 04:21:42;;;;;;;;;;;17.70;91.90;;;;;;4347639;33;43092;-75
2021/08/24 04:24:09;;;;;;;;;;;17.70;91.90;;;;;;4334224;33;44036;-76
2021/08/24 04:26:36;;;;;;;;;;;17.70;91.90;;;;;;4347559;33;43335;-76
2021/08/24 04:29:03;;;;;;;;;;;17.70;91.90;;;;;;4334560;33;43905;-75
2021/08/24 04:31:33;;;;;;;;;;;17.60;91.90;;;;;;4347328;33;43474;-75
2021/08/24 04:34:00;;;;;;;;;;;17.60;91.90;;;;;;4347173;33;42811;-76
2021/08/24 04:36:27;;;;;;;;;;;17.60;91.90;;;;;;4347377;33;43021;-76
2021/08/24 04:38:54;;;;;;;;;;;17.60;91.90;;;;;;4346869;33;42941;-76
2021/08/24 04:41:21;;;;;;;;;;;17.60;91.90;;;;;;4333580;33;42354;-75
2021/08/24 04:43:48;;;;;;;;;;;17.60;91.90;;;;;;4346758;33;43885;-75
2021/08/24 04:46:15;;;;;;;;;;;17.60;91.90;;;;;;4347293;33;43982;-75
2021/08/24 04:48:46;;;;;;;;;;;17.60;91.90;;;;;;4333830;33;43521;-75
2021/08/24 04:51:14;;;;;;;;;;;17.50;92.20;;;;;;4347212;33;43438;-75
2021/08/24 04:53:41;;;;;;;;;;;17.50;91.90;;;;;;4333475;33;44303;-75
2021/08/24 04:56:08;;;;;;;;;;;17.50;91.90;;;;;;4333597;33;42835;-75
2021/08/24 04:58:35;;;;;;;;;;;17.50;91.90;;;;;;4333320;33;43793;-75
2021/08/24 05:01:02;;;;;;;;;;;17.50;91.90;;;;;;4346521;33;43930;-75
2021/08/24 05:03:30;;;;;;;;;;;17.50;91.80;;;;;;4330584;33;43301;-75
2021/08/24 05:05:58;;;;;;;;;;;17.50;91.90;;;;;;4331715;33;43158;-75
2021/08/24 05:08:25;;;;;;;;;;;17.50;91.90;;;;;;4332179;33;43036;-75
2021/08/24 05:10:52;;;;;;;;;;;17.50;91.90;;;;;;4331671;33;42460;-76
2021/08/24 05:13:19;;;;;;;;;;;17.50;91.90;;;;;;4331726;33;42994;-75
2021/08/24 05:15:46;;;;;;;;;;;17.50;91.90;;;;;;4331087;33;43854;-75
2021/08/24 05:18:14;;;;;;;;;;;17.50;91.90;;;;;;4331687;33;43486;-75
2021/08/24 05:20:41;;;;;;;;;;;17.50;91.80;;;;;;4330888;33;43466;-76
2021/08/24 05:23:08;;;;;;;;;;;17.50;91.80;;;;;;4331487;33;42766;-75
2021/08/24 05:25:37;;;;;;;;;;;17.40;91.70;;;;;;4331478;33;43412;-75
2021/08/24 05:28:04;;;;;;;;;;;17.40;91.70;;;;;;4332014;33;43272;-75
2021/08/24 05:30:31;;;;;;;;;;;17.40;91.80;;;;;;4330380;33;42569;-75
2021/08/24 05:33:00;;;;;;;;;;;17.40;91.80;;;;;;4330628;33;42836;-75
2021/08/24 05:35:27;;;;;;;;;;;17.30;91.70;;;;;;4331737;33;43854;-75
2021/08/24 05:37:54;;;;;;;;;;;17.40;91.80;;;;;;4331285;33;42761;-76
2021/08/24 05:40:22;;;;;;;;;;;17.30;91.80;;;;;;4330365;33;43039;-75
2021/08/24 05:42:49;;;;;;;;;;;17.30;91.80;;;;;;4331285;33;42722;-75
2021/08/24 05:45:19;;;;;;;;;;;17.30;91.80;;;;;;4332171;33;20044;-75
2021/08/24 05:47:46;;;;;;;;;;;17.30;91.90;;;;;;4331212;33;42565;-75
2021/08/24 05:50:13;;;;;;;;;;;17.30;91.90;;;;;;4330057;33;42629;-75
2021/08/24 05:52:41;;;;;;;;;;;17.30;91.90;;;;;;4330284;33;43323;-75
2021/08/24 05:55:08;;;;;;;;;;;17.30;92.00;;;;;;4330396;33;43189;-75
2021/08/24 05:57:35;;;;;;;;;;;17.30;92.00;;;;;;4331357;33;43312;-75
2021/08/24 06:00:04;;;;;;;;;;;17.30;92.10;;;;;;4331571;33;45037;-75
2021/08/24 06:02:32;;;;;;;;;;;17.30;92.10;;;;;;4336372;33;44014;-75
2021/08/24 06:04:59;;;;;;;;;;;17.30;92.10;;;;;;4332738;33;45091;-75
2021/08/24 06:07:26;;;;;;;;;;;17.30;92.00;;;;;;4345784;33;44040;-75
2021/08/24 06:09:53;;;;;;;;;;;17.30;92.00;;;;;;4332611;33;43938;-75
2021/08/24 06:12:21;;;;;;;;;;;17.20;92.00;;;;;;4346009;33;43198;-75
2021/08/24 06:14:48;;;;;;;;;;;17.20;92.00;;;;;;4332170;33;43467;-75
2021/08/24 06:17:16;;;;;;;;;;;17.30;92.00;;;;;;4332240;33;42707;-76
2021/08/24 06:19:43;;;;;;;;;;;17.30;92.00;;;;;;4345610;33;44266;-75
2021/08/24 06:22:10;;;;;;;;;;;17.20;92.00;;;;;;4345328;33;43837;-75
2021/08/24 06:24:40;;;;;;;;;;;17.20;92.10;;;;;;4333044;33;43126;-76
2021/08/24 06:27:07;;;;;;;;;;;17.20;92.10;;;;;;4332246;33;42892;-75
2021/08/24 06:29:34;;;;;;;;;;;17.20;92.50;;;;;;4345825;33;43887;-75
2021/08/24 06:32:05;;;;;;;;;;;17.20;92.20;;;;;;4345392;33;44141;-75
2021/08/24 06:34:34;;;;;;;;;;;17.20;92.20;;;;;;4332408;33;44232;-75
2021/08/24 06:37:02;;;;;;;;;;;17.20;92.60;;;;;;4345686;33;44273;-75
2021/08/24 06:39:29;;;;;;;;;;;17.20;92.30;;;;;;4345553;33;43734;-75
2021/08/24 06:41:56;;;;;;;;;;;17.20;92.30;;;;;;4345061;33;44467;-75
2021/08/24 06:44:23;;;;;;;;;;;17.30;92.30;;;;;;4345110;33;43968;-75
2021/08/24 06:46:50;;;;;;;;;;;17.20;92.30;;;;;;4345129;33;44238;-75
2021/08/24 06:49:17;;;;;;;;;;;17.20;92.30;;;;;;4345087;33;43651;-74
2021/08/24 06:51:44;;;;;;;;;;;17.20;92.30;;;;;;4345432;33;42574;-76
2021/08/24 06:54:14;;;;;;;;;;;17.30;92.40;;;;;;4344980;33;43014;-75
2021/08/24 06:56:41;;;;;;;;;;;17.30;92.80;;;;;;4331680;33;42610;-75
2021/08/24 06:59:09;;;;;;;;;;;17.30;92.40;;;;;;4344957;33;44252;-75
2021/08/24 07:01:36;;;;;;;;;;;17.30;92.40;;;;;;4331812;33;42878;-75
2021/08/24 07:04:04;;;;;;;;;;;17.30;92.50;;;;;;4345263;33;44235;-75
2021/08/24 07:06:36;;;;;;;;;;;17.30;92.50;;;;;;4345484;33;44090;-75
2021/08/24 07:09:03;;;;;;;;;;;17.30;92.50;;;;;;4345249;33;42997;-75
2021/08/24 07:11:30;;;;;;;;;;;17.30;92.50;;;;;;4344824;33;43307;-75
2021/08/24 07:14:03;;;;;;;;;;;17.30;92.50;;;;;;4331929;33;43999;-75
2021/08/24 07:16:30;;;;;;;;;;;17.30;92.50;;;;;;4332225;33;45215;-75
2021/08/24 07:18:58;;;;;;;;;;;17.30;92.50;;;;;;4331879;33;43856;-75
2021/08/24 07:21:26;;;;;;;;;;;17.30;92.50;;;;;;4345164;33;43898;-75
2021/08/24 07:23:53;;;;;;;;;;;17.40;92.50;;;;;;4331948;33;43254;-75
2021/08/24 07:26:23;;;;;;;;;;;17.40;92.60;;;;;;4344807;33;43943;-75
2021/08/24 07:28:51;;;;;;;;;;;17.40;92.50;;;;;;4331485;33;43446;-75
2021/08/24 07:31:18;;;;;;;;;;;17.30;92.50;;;;;;4345201;33;43933;-75
2021/08/24 07:33:45;;;;;;;;;;;17.40;92.60;;;;;;4332688;33;42934;-75
2021/08/24 07:36:13;;;;;;;;;;;17.40;92.60;;;;;;4348125;33;43491;-75
2021/08/24 07:38:40;;;;;;;;;;;17.40;92.60;;;;;;4347673;33;43484;-75
2021/08/24 07:41:07;;;;;;;;;;;17.40;92.60;;;;;;4334857;33;43168;-75
2021/08/24 07:43:34;;;;;;;;;;;17.40;92.60;;;;;;4334691;33;42185;-75
2021/08/24 07:46:03;;;;;;;;;;;17.40;92.60;;;;;;4347940;33;45667;-75
2021/08/24 07:48:31;;;;;;;;;;;17.40;92.60;;;;;;4334304;33;42621;-75
2021/08/24 07:50:58;;;;;;;;;;;17.40;92.60;;;;;;4334262;33;43826;-75
2021/08/24 07:53:25;;;;;;;;;;;17.40;92.60;;;;;;4347580;33;42002;-75
2021/08/24 07:55:52;;;;;;;;;;;17.40;92.60;;;;;;4347559;33;43591;-75
2021/08/24 07:58:19;;;;;;;;;;;17.50;93.00;;;;;;4347374;33;43991;-75
2021/08/24 08:00:47;;;;;;;;;;;17.50;92.70;;;;;;4334165;33;43606;-75
2021/08/24 08:03:14;;;;;;;;;;;17.50;92.70;;;;;;4346840;33;43486;-75
2021/08/24 08:05:41;;;;;;;;;;;17.50;92.70;;;;;;4333628;33;43099;-75
2021/08/24 08:08:09;;;;;;;;;;;17.50;92.70;;;;;;4346894;33;43899;-76
2021/08/24 08:10:37;;;;;;;;;;;17.50;92.70;;;;;;4333141;33;44020;-75
2021/08/24 08:13:04;;;;;;;;;;;17.50;92.80;;;;;;4346778;33;44254;-75
2021/08/24 08:15:33;;;;;;;;;;;17.50;93.10;;;;;;4346563;33;44297;-75
2021/08/24 08:18:01;;;;;;;;;;;17.50;92.80;;;;;;4346634;33;44084;-75
2021/08/24 08:20:29;;;;;;;;;;;17.50;92.80;;;;;;4346604;33;43895;-75
2021/08/24 08:22:56;;;;;;;;;;;17.50;92.80;;;;;;4333064;33;43482;-74
2021/08/24 08:25:23;;;;;;;;;;;17.50;92.80;;;;;;4346722;33;43303;-75
2021/08/24 08:27:50;;;;;;;;;;;17.50;92.80;;;;;;4346492;33;43928;-75
2021/08/24 08:30:18;;;;;;;;;;;17.50;92.80;;;;;;4346556;33;43032;-75
2021/08/24 08:32:45;;;;;;;;;;;17.50;92.90;;;;;;4346458;33;42769;-75
2021/08/24 08:35:13;;;;;;;;;;;17.60;92.90;;;;;;4332800;33;43107;-75
2021/08/24 08:37:41;;;;;;;;;;;17.60;92.90;;;;;;4333411;33;43240;-75
2021/08/24 08:40:09;;;;;;;;;;;17.50;92.90;;;;;;4332749;33;44309;-75
2021/08/24 08:42:36;;;;;;;;;;;17.60;92.90;;;;;;4346043;33;43237;-75
2021/08/24 08:45:06;;;;;;;;;;;17.60;92.90;;;;;;4332769;33;44195;-75
2021/08/24 08:47:51;;;;;;;;;;;17.60;93.00;;;;;;4332643;33;43511;-75
2021/08/24 08:50:21;;;;;;;;;;;17.60;93.00;;;;;;4346754;33;43276;-75
2021/08/24 08:52:54;;;;;;;;;;;17.60;93.00;;;;;;4346104;33;42914;-74
2021/08/24 08:55:30;;;;;;;;;;;17.60;93.00;;;;;;4346331;33;43837;-75
2021/08/24 08:57:57;;;;;;;;;;;17.60;93.00;;;;;;4332925;33;43616;-74
2021/08/24 09:00:48;;;;;;;;;;;17.60;93.00;;;;;;4345819;33;44059;-74
2021/08/24 09:03:22;;;;;;;;;;;17.60;93.00;;;;;;4340080;33;43291;-75
2021/08/24 09:05:49;;;;;;;;;;;17.60;93.00;;;;;;4347141;33;42963;-75
2021/08/24 09:08:18;;;;;;;;;;;17.60;93.00;;;;;;4346752;33;45968;-75
2021/08/24 09:10:46;;;;;;;;;;;17.60;93.00;;;;;;4346446;33;42861;-75
2021/08/24 09:13:32;;;;;;;;;;;17.60;93.00;;;;;;4346565;33;43114;-75
2021/08/24 09:16:11;;;;;;;;;;;17.60;93.00;;;;;;4346840;33;43690;-75
2021/08/24 09:18:47;;;;;;;;;;;17.70;93.00;;;;;;4347674;33;20005;-75
2021/08/24 09:21:18;;;;;;;;;;;17.70;93.00;;;;;;4346359;33;43495;-75
2021/08/24 09:23:45;;;;;;;;;;;17.70;93.10;;;;;;4346803;33;43200;-75
2021/08/24 09:26:18;;;;;;;;;;;17.70;93.10;;;;;;4346518;33;43533;-74
2021/08/24 09:28:47;;;;;;;;;;;17.70;93.10;;;;;;4346788;33;43180;-74
2021/08/24 09:31:16;;;;;;;;;;;17.70;93.10;;;;;;4346459;33;44564;-76
2021/08/24 09:33:43;;;;;;;;;;;17.70;93.10;;;;;;4346203;33;44258;-74
2021/08/24 09:36:10;;;;;;;;;;;17.70;93.10;;;;;;4346347;33;42992;-75
2021/08/24 09:38:46;;;;;;;;;;;17.70;93.10;;;;;;4332891;33;42527;-75
2021/08/24 09:41:20;;;;;;;;;;;17.70;93.10;;;;;;4333135;33;43087;-75
2021/08/24 09:43:48;;;;;;;;;;;17.70;93.10;;;;;;4333214;33;43637;-75
2021/08/24 09:46:15;;;;;;;;;;;17.70;93.10;;;;;;4333146;33;43946;-74
2021/08/24 09:48:45;;;;;;;;;;;17.80;93.10;;;;;;4334427;33;20001;-74
2021/08/24 09:51:19;;;;;;;;;;;17.80;93.10;;;;;;4332570;33;43797;-75
2021/08/24 09:53:53;;;;;;;;;;;17.70;93.00;;;;;;4346304;33;43827;-75
2021/08/24 09:56:22;;;;;;;;;;;17.80;93.10;;;;;;4345647;33;43870;-74
2021/08/24 09:58:50;;;;;;;;;;;17.80;93.00;;;;;;4332601;33;43105;-75
2021/08/24 10:01:20;;;;;;;;;;;17.80;93.00;;;;;;4345993;33;43175;-74
2021/08/24 10:04:07;;;;;;;;;;;17.80;93.00;;;;;;4332775;33;43388;-74
2021/08/24 10:06:55;;;;;;;;;;;17.80;93.00;;;;;;4345862;33;42200;-74
2021/08/24 10:09:36;;;;;;;;;;;17.80;93.00;;;;;;4346013;33;43039;-74
2021/08/24 10:12:26;;;;;;;;;;;17.80;93.00;;;;;;4346158;33;43044;-73
2021/08/24 10:14:53;;;;;;;;;;;17.80;93.00;;;;;;4332888;33;43484;-74
2021/08/24 10:17:25;;;;;;;;;;;17.80;93.00;;;;;;4345403;33;43829;-75
2021/08/24 10:19:56;;;;;;;;;;;17.90;93.00;;;;;;4333525;33;19998;-74
2021/08/24 10:22:25;;;;;;;;;;;17.90;93.00;;;;;;4346029;33;43167;-75
2021/08/24 10:24:58;;;;;;;;;;;17.90;93.00;;;;;;4345724;33;43286;-74
2021/08/24 10:27:34;;;;;;;;;;;17.90;93.00;;;;;;4332489;33;43225;-73
2021/08/24 10:30:09;;;;;;;;;;;17.90;93.00;;;;;;4345319;33;42570;-75
2021/08/24 10:32:43;;;;;;;;;;;17.90;93.00;;;;;;4345965;33;42677;-75
2021/08/24 10:35:18;;;;;;;;;;;17.90;92.90;;;;;;4332478;33;44566;-74
2021/08/24 10:37:48;;;;;;;;;;;17.90;93.00;;;;;;4345702;33;44247;-74
2021/08/24 10:40:26;;;;;;;;;;;18.00;92.90;;;;;;4345734;33;43861;-75
2021/08/24 10:43:00;;;;;;;;;;;18.00;92.90;;;;;;4345303;33;42069;-74
2021/08/24 10:45:35;;;;;;;;;;;18.00;92.90;;;;;;4345106;33;43772;-74
2021/08/24 10:48:04;;;;;;;;;;;18.00;92.80;;;;;;4345562;33;43978;-75
2021/08/24 10:50:50;;;;;;;;;;;18.00;92.80;;;;;;4346524;33;19993;-74
2021/08/24 10:53:39;;;;;;;;;;;18.00;92.80;;;;;;4331943;33;42105;-75
2021/08/24 10:56:14;;;;;;;;;;;18.00;92.80;;;;;;4344957;33;45185;-74
2021/08/24 10:58:56;;;;;;;;;;;18.10;92.70;;;;;;4345635;33;43881;-75
2021/08/24 11:01:33;;;;;;;;;;;18.10;92.70;;;;;;4345254;33;45144;-74
2021/08/24 11:04:20;;;;;;;;;;;18.10;92.70;;;;;;4345022;33;43924;-75
2021/08/24 11:06:57;;;;;;;;;;;18.10;92.70;;;;;;4331706;33;44985;-74
2021/08/24 11:09:31;;;;;;;;;;;18.10;92.70;;;;;;4344992;33;43586;-74
2021/08/24 11:12:01;;;;;;;;;;;18.10;92.70;;;;;;4331606;33;42852;-75
2021/08/24 11:14:47;;;;;;;;;;;18.10;92.70;;;;;;4331889;33;43548;-75
2021/08/24 11:17:27;;;;;;;;;;;18.20;92.70;;;;;;4345281;33;44553;-74
2021/08/24 11:20:13;;;;;;;;;;;18.20;92.70;;;;;;4332160;33;43888;-74
2021/08/24 11:22:59;;;;;;;;;;;18.20;92.60;;;;;;4345302;33;43930;-74
2021/08/24 11:25:52;;;;;;;;;;;18.20;91.80;;;;;;4332236;33;43741;-74
2021/08/24 11:28:25;;;;;;;;;;;18.20;91.20;;;;;;4330046;33;44519;-75
2021/08/24 11:31:12;;;;;;;;;;;18.30;90.10;;;;;;4345334;33;43478;-74
2021/08/24 11:33:44;;;;;;;;;;;18.30;90.60;;;;;;4345070;33;43007;-73
2021/08/24 11:36:16;;;;;;;;;;;18.30;89.80;;;;;;4331383;33;44233;-73
2021/08/24 11:38:52;;;;;;;;;;;18.30;90.30;;;;;;4345084;33;43203;-75
2021/08/24 11:41:23;;;;;;;;;;;18.40;89.60;;;;;;4331461;33;43632;-74
2021/08/24 11:44:12;;;;;;;;;;;18.40;90.00;;;;;;4332092;33;42160;-73
2021/08/24 11:46:56;;;;;;;;;;;18.40;88.90;;;;;;4345239;33;43712;-74
2021/08/24 11:49:46;;;;;;;;;;;18.40;89.20;;;;;;4345170;33;44192;-75
2021/08/24 11:52:16;;;;;;;;;;;18.40;89.60;;;;;;4332630;33;20044;-74
2021/08/24 11:55:02;;;;;;;;;;;18.50;88.50;;;;;;4344730;33;43100;-74
2021/08/24 11:57:50;;;;;;;;;;;18.50;88.80;;;;;;4332732;33;43058;-74
2021/08/24 12:00:23;;;;;;;;;;;18.50;87.80;;;;;;4345086;33;45160;-73
2021/08/24 12:02:50;;;;;;;;;;;18.60;87.60;;;;;;4344772;33;43663;-73
2021/08/24 12:05:25;;;;;;;;;;;18.60;86.90;;;;;;4344856;33;43878;-74
2021/08/24 12:08:12;;;;;;;;;;;18.60;87.10;;;;;;4344952;33;45122;-74
2021/08/24 12:11:14;;;;;;;;;;;18.60;87.10;;;;;;4344942;33;43782;-74
2021/08/24 12:13:46;;;;;;;;;;;18.70;88.20;;;;;;4331690;33;44033;-74
2021/08/24 12:16:27;;;;;;;;;;;18.70;87.20;;;;;;4331391;33;44676;-74
2021/08/24 12:19:03;;;;;;;;;;;18.70;86.10;;;;;;4331797;33;43201;-74
2021/08/24 12:21:35;;;;;;;;;;;18.70;86.20;;;;;;4347446;33;42843;-75
2021/08/24 12:24:31;;;;;;;;;;;18.70;85.90;;;;;;4347732;33;43745;-73
2021/08/24 12:27:09;;;;;;;;;;;18.70;86.40;;;;;;4324196;33;43297;-74
2021/08/24 12:29:39;;;;;;;;;;;18.70;86.50;;;;;;4334359;33;43490;-74
2021/08/24 12:32:31;;;;;;;;;;;18.70;86.30;;;;;;4347461;33;43008;-73
2021/08/24 12:35:10;;;;;;;;;;;18.70;86.00;;;;;;4333966;33;43324;-73
2021/08/24 12:37:40;;;;;;;;;;;18.70;85.40;;;;;;4334010;33;43171;-73
2021/08/24 12:40:30;;;;;;;;;;;18.80;86.40;;;;;;4347493;33;43016;-74
2021/08/24 12:43:09;;;;;;;;;;;18.80;85.70;;;;;;4333965;33;42100;-74
2021/08/24 12:45:36;;;;;;;;;;;18.80;85.30;;;;;;4347417;33;43212;-74
2021/08/24 12:48:14;;;;;;;;;;;18.80;84.20;;;;;;4346750;33;42648;-75
2021/08/24 12:50:47;;;;;;;;;;;18.90;84.30;;;;;;4334347;33;43708;-74
2021/08/24 12:53:39;;;;;;;;;;;18.90;84.20;;;;;;4334027;33;43897;-73
2021/08/24 12:56:12;;;;;;;;;;;18.90;84.10;;;;;;4347222;33;42938;-74
2021/08/24 12:58:48;;;;;;;;;;;18.90;83.30;;;;;;4347154;33;43718;-74
2021/08/24 13:01:24;;;;;;;;;;;18.90;83.50;;;;;;4347136;33;42763;-74
2021/08/24 13:04:01;;;;;;;;;;;18.90;83.90;;;;;;4346416;33;44247;-74
2021/08/24 13:06:41;;;;;;;;;;;19.00;84.20;;;;;;4347201;33;43197;-74
2021/08/24 13:09:30;;;;;;;;;;;19.00;83.60;;;;;;4347076;33;44572;-73
2021/08/24 13:12:09;;;;;;;;;;;19.10;82.70;;;;;;4347107;33;44846;-74
2021/08/24 13:14:50;;;;;;;;;;;19.10;83.00;;;;;;4333878;33;43186;-74
2021/08/24 13:17:37;;;;;;;;;;;19.10;82.80;;;;;;4333579;33;43521;-74
2021/08/24 13:20:14;;;;;;;;;;;19.10;81.30;;;;;;4338612;33;43617;-74
2021/08/24 13:23:03;;;;;;;;;;;19.10;81.70;;;;;;4333649;33;43695;-73
2021/08/24 13:25:40;;;;;;;;;;;19.20;82.10;;;;;;4346631;33;45842;-74
2021/08/24 13:28:18;;;;;;;;;;;19.20;81.30;;;;;;4333490;33;45750;-74
2021/08/24 13:30:53;;;;;;;;;;;19.20;81.00;;;;;;4345794;33;43102;-74
2021/08/24 13:33:42;;;;;;;;;;;19.20;82.20;;;;;;4346149;33;42963;-74
2021/08/24 13:36:20;;;;;;;;;;;19.30;81.30;;;;;;4333275;33;44309;-74
2021/08/24 13:39:02;;;;;;;;;;;19.30;81.70;;;;;;4345991;33;44184;-74
2021/08/24 13:41:48;;;;;;;;;;;19.30;80.10;;;;;;4346590;33;43090;-74
2021/08/24 13:44:17;;;;;;;;;;;19.40;81.30;;;;;;4346199;33;45593;-75
2021/08/24 13:46:54;;;;;;;;;;;19.40;81.80;;;;;;4333536;33;43082;-74
2021/08/24 13:49:39;;;;;;;;;;;19.40;81.10;;;;;;4346507;33;45515;-73
2021/08/24 13:52:13;;;;;;;;;;;19.50;80.80;;;;;;4345952;33;43629;-74
2021/08/24 13:54:50;;;;;;;;;;;19.50;81.20;;;;;;4346407;33;43050;-75
2021/08/24 13:57:29;;;;;;;;;;;19.50;81.20;;;;;;4346839;33;20476;-74
2021/08/24 14:00:06;;;;;;;;;;;19.50;80.40;;;;;;4332813;33;41870;-74
2021/08/24 14:02:38;;;;;;;;;;;19.50;80.20;;;;;;4346104;33;43183;-74
2021/08/24 14:05:15;;;;;;;;;;;19.60;80.40;;;;;;4346221;33;43782;-73
2021/08/24 14:07:48;;;;;;;;;;;19.60;80.30;;;;;;4332830;33;42539;-75
2021/08/24 14:10:25;;;;;;;;;;;19.60;79.30;;;;;;4346250;33;43025;-74
2021/08/24 14:13:05;;;;;;;;;;;19.70;80.50;;;;;;4332687;33;44121;-74
2021/08/24 14:15:36;;;;;;;;;;;19.70;80.40;;;;;;4346060;33;44811;-74
2021/08/24 14:18:14;;;;;;;;;;;19.70;79.90;;;;;;4345892;33;43834;-74
2021/08/24 14:20:52;;;;;;;;;;;19.70;79.20;;;;;;4346010;33;44919;-74
2021/08/24 14:23:48;;;;;;;;;;;19.70;79.30;;;;;;4345892;33;43321;-74
2021/08/24 14:26:37;;;;;;;;;;;19.80;79.40;;;;;;4344631;33;45776;-74
2021/08/24 14:29:14;;;;;;;;;;;19.80;79.80;;;;;;4332605;33;28815;-73
2021/08/24 14:31:54;;;;;;;;;;;19.80;79.60;;;;;;4345783;33;44977;-73
2021/08/24 14:34:41;;;;;;;;;;;19.90;79.30;;;;;;4332308;33;44252;-74
2021/08/24 14:37:29;;;;;;;;;;;19.90;79.50;;;;;;4345327;33;42810;-74
2021/08/24 14:40:03;;;;;;;;;;;19.90;78.40;;;;;;4332402;33;42754;-73
2021/08/24 14:42:47;;;;;;;;;;;19.90;78.90;;;;;;4332484;33;43747;-74
2021/08/24 14:45:21;;;;;;;;;;;19.90;78.30;;;;;;4345868;33;44955;-74